Time;durP1;ratioP1;P1;durP2;ratioP2;P2;SDS_P1;SDS_P2;PMS_P1;PMS_P2;Temp;Humidity;BMP_temperature;BMP_pressure;BME280_temperature;BME280_humidity;BME280_pressure;Samples;Min_cycle;Max_cycle;Signal;HPM_P1;HPM_P2
2021/12/10 00:00:40;;;;;;;50.65;26.35;;;;;;;9.70;100.00;99401.78;5071697;28;20032;-69
2021/12/10 00:03:11;;;;;;;46.35;25.67;;;;;;;9.69;100.00;99400.13;5071500;28;20020;-69
2021/12/10 00:05:43;;;;;;;46.08;23.88;;;;;;;10.22;100.00;99411.81;5069085;28;20028;-69
2021/12/10 00:08:10;;;;;;;45.63;15.20;;;;;;;11.14;100.00;99395.59;5071501;28;20103;-70
2021/12/10 00:10:40;;;;;;;28.08;8.02;;;;;;;11.52;100.00;99396.59;5068911;28;20041;-69
2021/12/10 00:13:08;;;;;;;31.73;8.90;;;;;;;11.65;100.00;99392.63;5071479;28;20023;-70
2021/12/10 00:15:37;;;;;;;33.47;7.85;;;;;;;11.65;100.00;99364.63;5071576;28;21235;-69
2021/12/10 00:18:05;;;;;;;28.20;8.35;;;;;;;11.87;100.00;99405.31;5071680;28;20056;-70
2021/12/10 00:20:34;;;;;;;30.25;7.95;;;;;;;11.91;100.00;99404.31;5071101;28;20032;-69
2021/12/10 00:23:05;;;;;;;33.47;7.18;;;;;;;11.98;100.00;99403.97;5071089;28;20025;-69
2021/12/10 00:25:36;;;;;;;25.23;6.40;;;;;;;12.03;100.00;99399.53;5070937;28;20400;-69
2021/12/10 00:28:18;;;;;;;36.33;8.70;;;;;;;12.06;100.00;99409.56;5071154;28;20016;-69
2021/12/10 00:31:03;;;;;;;;;;;;;;;12.13;100.00;99413.53;5070331;28;20508;-69
2021/12/10 00:33:39;;;;;;;28.08;7.28;;;;;;;12.19;100.00;99409.88;5071559;28;19948;-69
2021/12/10 00:36:06;;;;;;;28.55;8.55;;;;;;;12.07;100.00;99421.44;5070215;28;20024;-69
2021/12/10 00:38:33;;;;;;;21.70;5.35;;;;;;;12.31;100.00;99411.88;5071713;28;20024;-70
2021/12/10 00:40:59;;;;;;;20.77;5.88;;;;;;;12.22;100.00;99407.19;5069903;28;20043;-69
2021/12/10 00:43:25;;;;;;;21.70;5.78;;;;;;;12.26;100.00;99395.16;5071544;28;20056;-69
2021/12/10 00:45:51;;;;;;;24.83;5.57;;;;;;;12.37;100.00;99398.03;5071635;28;20131;-69
2021/12/10 00:48:18;;;;;;;23.25;6.20;;;;;;;12.29;100.00;99400.94;5071342;28;20123;-69
2021/12/10 00:50:50;;;;;;;24.70;4.90;;;;;;;12.40;100.00;99403.81;5070827;28;20020;-71
2021/12/10 00:53:17;;;;;;;22.38;5.70;;;;;;;12.40;100.00;99400.47;5071349;28;20029;-69
2021/12/10 00:55:44;;;;;;;19.67;5.63;;;;;;;12.38;100.00;99385.22;5071098;28;20090;-70
2021/12/10 00:58:12;;;;;;;24.08;4.97;;;;;;;12.55;100.00;99395.50;5070793;28;20385;-69
2021/12/10 01:00:45;;;;;;;25.08;5.45;;;;;;;12.46;100.00;99388.25;5069738;28;20035;-70
2021/12/10 01:03:14;;;;;;;17.77;5.30;;;;;;;12.46;100.00;99393.34;5069106;28;20037;-69
2021/12/10 01:05:42;;;;;;;22.15;5.15;;;;;;;12.41;100.00;99384.25;5071130;28;20083;-69
2021/12/10 01:08:08;;;;;;;23.40;5.22;;;;;;;12.25;100.00;99353.53;5069846;28;20123;-69
2021/12/10 01:10:58;;;;;;;17.10;5.75;;;;;;;12.44;100.00;99372.19;5069750;28;20032;-69
2021/12/10 01:13:30;;;;;;;15.20;5.13;;;;;;;12.25;100.00;99334.88;5070990;28;20033;-69
2021/12/10 01:27:09;;;;;;;16.65;5.47;;;;;;;12.32;100.00;99361.75;5070873;28;20408;-69
2021/12/10 01:29:42;;;;;;;31.35;5.75;;;;;;;12.43;100.00;99362.91;5070956;28;20024;-69
2021/12/10 01:32:12;;;;;;;20.92;6.47;;;;;;;12.16;100.00;99342.03;5069320;28;20040;-70
2021/12/10 01:34:38;;;;;;;20.80;5.93;;;;;;;12.28;100.00;99366.13;5070755;28;20032;-69
2021/12/10 01:37:04;;;;;;;25.98;6.20;;;;;;;12.19;100.00;99364.00;5069536;28;20020;-69
2021/12/10 01:39:34;;;;;;;18.80;6.05;;;;;;;12.31;100.00;99367.72;5068780;28;20473;-69
2021/12/10 01:42:14;;;;;;;15.50;5.78;;;;;;;12.30;100.00;99361.78;5070676;28;20021;-70
2021/12/10 01:44:45;;;;;;;19.33;5.25;;;;;;;12.15;100.00;99334.47;5068195;28;20484;-70
2021/12/10 01:47:14;;;;;;;15.63;5.75;;;;;;;12.27;100.00;99367.03;5070761;28;20389;-69
2021/12/10 01:49:41;;;;;;;18.20;6.97;;;;;;;12.33;100.00;99363.38;5070776;28;20035;-69
2021/12/10 01:52:07;;;;;;;20.80;6.43;;;;;;;12.30;100.00;99361.00;5069278;28;20403;-69
2021/12/10 01:54:40;;;;;;;16.77;6.68;;;;;;;12.37;100.00;99359.81;5069152;28;20032;-69
2021/12/10 01:57:08;;;;;;;16.83;7.03;;;;;;;12.35;100.00;99354.78;5070345;28;20035;-68
2021/12/10 01:59:36;;;;;;;21.10;5.32;;;;;;;12.41;100.00;99344.31;5069206;28;20408;-69
2021/12/10 02:02:09;;;;;;;13.40;5.32;;;;;;;12.36;100.00;99351.31;5070655;28;20115;-69
2021/12/10 02:04:38;;;;;;;18.13;5.80;;;;;;;12.26;100.00;99319.50;5073942;28;20020;-69
2021/12/10 02:07:07;;;;;;;17.90;6.35;;;;;;;12.47;100.00;99343.19;5074573;28;20028;-68
2021/12/10 02:09:33;;;;;;;17.65;5.57;;;;;;;12.40;100.00;99337.53;5073322;28;20480;-69
2021/12/10 02:11:59;;;;;;;19.05;5.45;;;;;;;12.41;100.00;99338.38;5074132;28;20025;-69
2021/12/10 02:14:26;;;;;;;16.27;5.10;;;;;;;12.58;100.00;99336.69;5074465;28;20514;-69
2021/12/10 02:16:59;;;;;;;15.80;4.45;;;;;;;12.59;100.00;99317.13;5074128;28;20462;-69
2021/12/10 02:19:26;;;;;;;21.27;5.65;;;;;;;12.52;100.00;99325.97;5074030;28;20462;-69
2021/12/10 02:21:55;;;;;;;18.10;5.50;;;;;;;12.41;100.00;99323.91;5074340;28;20029;-69
2021/12/10 02:24:21;;;;;;;15.18;5.45;;;;;;;12.35;100.00;99323.34;5072636;28;20210;-69
2021/12/10 02:26:57;;;;;;;16.98;6.43;;;;;;;12.32;100.00;99333.72;5072693;28;20584;-70
2021/12/10 02:29:27;;;;;;;19.38;5.78;;;;;;;12.07;100.00;99295.75;5072882;28;20472;-70
2021/12/10 02:31:54;;;;;;;21.33;6.35;;;;;;;12.17;100.00;99325.84;5072432;28;20060;-69
2021/12/10 02:34:22;;;;;;;14.88;6.00;;;;;;;11.72;100.00;99321.97;5072919;28;20063;-69
2021/12/10 02:36:48;;;;;;;16.65;5.78;;;;;;;11.49;100.00;99306.81;5071943;28;20028;-69
2021/12/10 02:39:22;;;;;;;17.85;6.20;;;;;;;11.40;100.00;99314.81;5073333;28;20048;-69
2021/12/10 02:41:49;;;;;;;17.02;6.80;;;;;;;11.37;100.00;99305.59;5073657;28;20032;-69
2021/12/10 02:44:20;;;;;;;21.40;7.88;;;;;;;11.23;100.00;99306.16;5073963;28;20086;-69
2021/12/10 02:46:46;;;;;;;13.05;5.57;;;;;;;11.34;100.00;99298.09;5073789;28;20098;-69
2021/12/10 02:49:14;;;;;;;21.83;7.10;;;;;;;11.25;100.00;99289.13;5073771;28;20028;-69
2021/12/10 02:51:41;;;;;;;21.23;7.03;;;;;;;11.28;100.00;99288.19;5073395;28;20488;-69
2021/12/10 02:54:09;;;;;;;18.27;7.45;;;;;;;10.78;100.00;99188.56;5073531;28;20064;-69
2021/12/10 02:56:36;;;;;;;22.65;9.82;;;;;;;11.29;100.00;99282.19;5072198;28;20067;-69
2021/12/10 02:59:03;;;;;;;22.27;8.90;;;;;;;11.48;100.00;99272.06;5072141;28;20048;-69
2021/12/10 03:01:40;;;;;;;23.90;8.05;;;;;;;11.85;100.00;99247.50;5072013;28;20428;-69
2021/12/10 03:04:09;;;;;;;15.95;7.45;;;;;;;12.22;100.00;99282.34;5072222;28;20031;-69
2021/12/10 03:06:44;;;;;;;15.27;6.78;;;;;;;12.32;100.00;99278.44;5073314;28;20146;-69
2021/12/10 03:09:11;;;;;;;14.55;6.80;;;;;;;12.36;100.00;99268.94;5072978;28;20051;-69
2021/12/10 03:11:46;;;;;;;22.77;9.60;;;;;;;12.28;100.00;99248.91;5073383;28;20024;-69
2021/12/10 03:14:12;;;;;;;19.75;8.45;;;;;;;12.48;100.00;99274.28;5071627;28;20085;-69
2021/12/10 03:16:43;;;;;;;20.65;8.50;;;;;;;12.41;100.00;99275.47;5073170;28;20025;-69
2021/12/10 03:19:09;;;;;;;22.83;8.25;;;;;;;12.29;100.00;99262.47;5073538;28;20025;-69
2021/12/10 03:21:38;;;;;;;19.17;9.10;;;;;;;12.29;100.00;99259.91;5073218;28;20028;-69
2021/12/10 03:24:04;;;;;;;20.75;9.13;;;;;;;12.32;100.00;99263.16;5072979;28;20021;-69
2021/12/10 03:26:30;;;;;;;23.05;9.10;;;;;;;12.40;100.00;99289.09;5072904;28;20149;-69
2021/12/10 03:28:56;;;;;;;27.52;8.88;;;;;;;12.57;100.00;99291.72;5072926;28;20021;-69
2021/12/10 03:31:24;;;;;;;25.58;10.02;;;;;;;12.60;100.00;99291.56;5070812;28;20024;-69
2021/12/10 03:33:54;;;;;;;17.98;8.52;;;;;;;12.67;100.00;99289.53;5072872;28;20025;-69
2021/12/10 03:36:20;;;;;;;19.20;8.98;;;;;;;12.64;100.00;99294.78;5072666;28;20016;-69
2021/12/10 03:38:50;;;;;;;24.52;9.63;;;;;;;12.61;100.00;99300.03;5071384;28;20020;-70
2021/12/10 03:41:16;;;;;;;19.38;9.77;;;;;;;12.55;100.00;99292.69;5072450;28;20056;-69
2021/12/10 03:43:44;;;;;;;22.13;10.60;;;;;;;12.58;100.00;99288.25;5071985;28;20074;-69
2021/12/10 03:46:11;;;;;;;21.25;8.80;;;;;;;12.62;100.00;99296.56;5072738;28;20024;-68
2021/12/10 03:48:41;;;;;;;20.23;10.10;;;;;;;12.43;100.00;99266.03;5072454;28;20041;-69
2021/12/10 03:51:12;;;;;;;22.30;10.63;;;;;;;12.59;100.00;99296.72;5071211;28;20024;-69
2021/12/10 03:53:38;;;;;;;20.92;11.63;;;;;;;12.57;100.00;99304.47;5071662;28;20408;-69
2021/12/10 03:56:09;;;;;;;15.38;9.15;;;;;;;12.61;100.00;99297.50;5071313;28;20078;-70
2021/12/10 03:58:36;;;;;;;16.02;9.57;;;;;;;12.54;100.00;99278.28;5071967;28;20060;-69
2021/12/10 04:01:04;;;;;;;18.70;9.43;;;;;;;12.48;100.00;99261.53;5072212;28;20457;-69
2021/12/10 04:03:32;;;;;;;18.73;10.05;;;;;;;12.44;100.00;99254.13;5070965;28;20025;-69
2021/12/10 04:05:58;;;;;;;17.10;10.93;;;;;;;12.54;100.00;99268.91;5070985;28;20052;-68
2021/12/10 04:08:24;;;;;;;22.30;11.75;;;;;;;12.42;100.00;99253.38;5070632;28;20024;-69
2021/12/10 04:10:52;;;;;;;22.90;11.75;;;;;;;12.46;100.00;99260.78;5072047;28;20021;-69
2021/12/10 04:13:20;;;;;;;22.90;10.77;;;;;;;12.44;100.00;99254.13;5070791;28;20034;-70
2021/12/10 04:15:47;;;;;;;17.33;9.88;;;;;;;12.39;100.00;99225.47;5072013;28;20086;-70
2021/12/10 04:18:13;;;;;;;18.63;9.95;;;;;;;12.36;100.00;99223.88;5071800;28;20056;-69
2021/12/10 04:20:41;;;;;;;26.58;10.18;;;;;;;12.59;100.00;99249.13;5070951;28;20060;-69
2021/12/10 04:23:11;;;;;;;18.33;8.32;;;;;;;12.58;100.00;99236.41;5070189;28;20127;-68
2021/12/10 04:25:37;;;;;;;18.77;8.38;;;;;;;12.59;100.00;99250.84;5070629;28;20024;-69
2021/12/10 04:28:07;;;;;;;19.60;8.73;;;;;;;12.56;100.00;99250.97;5070259;28;20025;-68
2021/12/10 04:30:39;;;;;;;24.30;9.55;;;;;;;12.12;100.00;99246.22;5070617;28;20024;-69
2021/12/10 04:33:05;;;;;;;;;;;;;;;11.89;100.00;99225.25;5070405;28;20040;-68
2021/12/10 04:35:31;;;;;;;18.63;9.15;;;;;;;11.98;100.00;99225.66;5071501;28;19919;-68
2021/12/10 04:38:00;;;;;;;20.15;9.80;;;;;;;12.30;100.00;99228.47;5071164;28;20111;-69
2021/12/10 04:40:25;;;;;;;19.55;8.57;;;;;;;12.35;100.00;99201.84;5070154;28;20058;-73
2021/12/10 04:42:53;;;;;;;21.80;8.70;;;;;;;12.43;100.00;99225.25;5071407;28;20035;-72
2021/12/10 04:45:26;;;;;;;17.77;8.57;;;;;;;12.45;100.00;99230.28;5070176;28;20024;-70
2021/12/10 04:47:52;;;;;;;20.48;9.30;;;;;;;12.43;100.00;99216.78;5070966;28;20078;-70
2021/12/10 04:50:22;;;;;;;20.17;7.57;;;;;;;12.43;100.00;99212.50;5069998;28;20528;-67
2021/12/10 04:52:48;;;;;;;20.48;8.52;;;;;;;12.34;100.00;99204.47;5067941;28;20492;-68
2021/12/10 04:55:18;;;;;;;19.73;7.35;;;;;;;12.44;100.00;99221.00;5070240;28;20024;-69
2021/12/10 04:57:44;;;;;;;16.02;6.85;;;;;;;12.63;100.00;99211.53;5070693;28;20446;-69
2021/12/10 05:00:14;;;;;;;26.17;8.25;;;;;;;12.57;100.00;99222.88;5070859;28;20500;-69
2021/12/10 05:02:41;;;;;;;22.98;7.05;;;;;;;12.60;100.00;99232.91;5070035;28;20029;-70
2021/12/10 05:05:08;;;;;;;20.90;6.55;;;;;;;12.67;100.00;99221.53;5070977;28;20035;-70
2021/12/10 05:07:36;;;;;;;20.70;6.53;;;;;;;12.58;100.00;99218.56;5070886;28;20107;-70
2021/12/10 05:10:07;;;;;;;16.65;6.95;;;;;;;12.70;100.00;99221.38;5070454;28;20085;-69
2021/12/10 05:12:32;;;;;;;16.85;5.97;;;;;;;12.69;100.00;99226.53;5070218;28;20416;-70
2021/12/10 05:15:00;;;;;;;19.95;6.00;;;;;;;12.69;100.00;99224.00;5070205;28;20029;-69
2021/12/10 05:17:30;;;;;;;19.45;6.28;;;;;;;12.61;100.00;99224.38;5070361;28;20404;-68
2021/12/10 05:19:56;;;;;;;20.73;5.97;;;;;;;12.70;100.00;99218.81;5070427;28;20031;-69
2021/12/10 05:22:22;;;;;;;22.48;6.90;;;;;;;12.66;100.00;99224.13;5068826;28;20029;-71
2021/12/10 05:24:48;;;;;;;21.17;6.50;;;;;;;12.65;100.00;99223.31;5069894;28;20033;-68
2021/12/10 05:27:14;;;;;;;15.10;4.45;;;;;;;12.89;100.00;99226.41;5070434;28;20032;-66
2021/12/10 05:29:39;;;;;;;19.40;6.60;;;;;;;12.71;100.00;99220.47;5068901;28;20032;-68
2021/12/10 05:32:08;;;;;;;23.38;7.32;;;;;;;12.85;100.00;99227.44;5069061;28;20485;-70
2021/12/10 05:34:36;;;;;;;22.90;7.43;;;;;;;12.71;100.00;99215.38;5069774;28;20021;-69
2021/12/10 05:37:03;;;;;;;23.92;7.70;;;;;;;12.72;100.00;99228.94;5070234;28;20020;-67
2021/12/10 05:39:28;;;;;;;25.40;8.20;;;;;;;12.90;100.00;99236.53;5069264;28;20048;-69
2021/12/10 05:41:54;;;;;;;23.83;8.23;;;;;;;12.87;100.00;99234.13;5068895;28;20028;-69
2021/12/10 05:44:20;;;;;;;28.15;9.88;;;;;;;12.78;100.00;99226.91;5070169;28;20396;-68
2021/12/10 05:46:47;;;;;;;26.20;9.15;;;;;;;12.87;100.00;99230.75;5070322;28;20063;-71
2021/12/10 05:49:12;;;;;;;25.58;11.48;;;;;;;12.87;100.00;99240.97;5069395;28;20082;-68
2021/12/10 05:51:40;;;;;;;22.98;6.90;;;;;;;12.90;100.00;99239.06;5070344;28;20033;-67
2021/12/10 05:54:06;;;;;;;23.45;8.82;;;;;;;12.62;100.00;99209.88;5068923;28;20044;-69
2021/12/10 05:56:32;;;;;;;30.88;10.32;;;;;;;12.68;100.00;99240.19;5069079;28;20028;-68
2021/12/10 05:58:59;;;;;;;27.30;11.18;;;;;;;12.75;100.00;99244.09;5068244;28;20086;-68
2021/12/10 06:01:25;;;;;;;27.70;9.27;;;;;;;12.79;100.00;99249.00;5069676;28;20021;-68
2021/12/10 06:03:53;;;;;;;24.60;10.80;;;;;;;12.71;100.00;99247.69;5069794;28;20120;-69
2021/12/10 06:06:26;;;;;;;25.35;8.30;;;;;;;12.79;100.00;99248.16;5069531;28;20021;-69
2021/12/10 06:08:53;;;;;;;21.58;7.57;;;;;;;12.84;100.00;99252.13;5068857;28;20573;-70
2021/12/10 06:11:20;;;;;;;22.02;7.47;;;;;;;12.72;100.00;99226.38;5065946;28;20029;-69
2021/12/10 06:13:46;;;;;;;21.33;7.97;;;;;;;12.77;100.00;99240.59;5067191;28;20400;-68
2021/12/10 06:16:15;;;;;;;30.15;12.50;;;;;;;12.71;100.00;99237.50;5063328;28;20033;-69
2021/12/10 06:18:41;;;;;;;42.53;17.40;;;;;;;12.87;100.00;99243.50;5067318;28;20067;-68
2021/12/10 06:21:07;;;;;;;38.17;14.60;;;;;;;12.69;100.00;99206.16;5066862;28;20108;-69
2021/12/10 06:23:33;;;;;;;44.30;22.05;;;;;;;12.80;100.00;99234.50;5067718;28;20101;-68
2021/12/10 06:26:00;;;;;;;45.00;21.52;;;;;;;12.80;100.00;99235.31;5067804;28;20021;-69
2021/12/10 06:28:26;;;;;;;51.00;25.23;;;;;;;12.77;100.00;99237.19;5070131;28;20218;-69
2021/12/10 06:30:53;;;;;;;37.38;17.85;;;;;;;12.93;100.00;99245.75;5068861;28;20154;-68
2021/12/10 06:33:23;;;;;;;39.88;22.63;;;;;;;12.93;100.00;99235.56;5070123;28;20020;-69
2021/12/10 06:36:00;;;;;;;25.08;13.00;;;;;;;13.08;100.00;99227.16;5063703;28;20039;-73
2021/12/10 06:38:27;;;;;;;29.48;12.40;;;;;;;13.06;100.00;99241.72;5055061;28;20024;-69
2021/12/10 06:40:53;;;;;;;27.13;8.98;;;;;;;13.16;100.00;99234.41;5069749;28;20041;-70
2021/12/10 06:43:20;;;;;;;22.08;9.23;;;;;;;13.12;100.00;99235.47;5066142;28;20082;-69
2021/12/10 06:45:49;;;;;;;26.67;9.13;;;;;;;13.13;100.00;99243.09;5057112;28;20063;-69
2021/12/10 06:48:18;;;;;;;23.38;8.18;;;;;;;13.23;100.00;99240.88;5050708;28;20114;-69
2021/12/10 06:50:48;;;;;;;20.90;6.43;;;;;;;13.33;100.00;99234.41;5053864;28;20527;-69
2021/12/10 06:53:16;;;;;;;22.70;8.13;;;;;;;13.21;100.00;99230.72;5053651;28;20086;-70
2021/12/10 06:55:42;;;;;;;28.63;7.25;;;;;;;13.17;100.00;99224.16;5053370;28;20029;-69
2021/12/10 06:58:08;;;;;;;24.13;7.75;;;;;;;13.24;100.00;99220.38;5053575;28;20037;-69
2021/12/10 07:00:42;;;;;;;23.63;6.75;;;;;;;13.20;100.00;99218.88;5053467;28;20037;-70
2021/12/10 07:03:12;;;;;;;23.90;6.85;;;;;;;13.27;100.00;99240.63;5051878;28;20037;-69
2021/12/10 07:05:39;;;;;;;26.10;9.50;;;;;;;13.25;100.00;99237.31;5052610;28;20029;-69
2021/12/10 07:08:05;;;;;;;28.35;9.98;;;;;;;13.28;100.00;99231.25;5065881;28;20039;-69
2021/12/10 07:10:31;;;;;;;23.27;8.65;;;;;;;13.19;100.00;99237.66;5050578;28;20029;-72
2021/12/10 07:12:57;;;;;;;31.60;11.00;;;;;;;13.26;100.00;99244.09;5050994;28;20041;-70
2021/12/10 07:15:23;;;;;;;26.60;8.23;;;;;;;13.29;100.00;99245.69;5051705;28;20033;-69
2021/12/10 07:17:51;;;;;;;23.67;8.70;;;;;;;13.21;100.00;99232.47;5050353;28;20550;-70
2021/12/10 07:20:20;;;;;;;23.85;8.70;;;;;;;13.29;100.00;99227.81;5050594;28;20041;-69
2021/12/10 07:22:46;;;;;;;29.88;12.68;;;;;;;13.22;100.00;99234.94;5050552;28;20481;-70
2021/12/10 07:25:12;;;;;;;35.17;14.85;;;;;;;13.31;100.00;99226.00;5050877;28;20067;-69
2021/12/10 07:27:40;;;;;;;34.30;15.02;;;;;;;13.35;100.00;99228.31;5049729;28;20148;-70
2021/12/10 07:30:08;;;;;;;52.45;20.20;;;;;;;13.49;100.00;99217.41;5050441;28;20029;-69
2021/12/10 07:32:35;;;;;;;116.18;48.05;;;;;;;13.36;100.00;99208.72;5050927;28;20497;-69
2021/12/10 07:35:06;;;;;;;43.65;16.05;;;;;;;13.42;100.00;99214.34;5049672;28;20071;-70
2021/12/10 07:37:32;;;;;;;42.72;17.58;;;;;;;13.28;100.00;99221.88;5050704;28;20393;-69
2021/12/10 07:39:57;;;;;;;24.13;8.52;;;;;;;13.44;100.00;99216.81;5050515;28;20493;-69
2021/12/10 07:42:23;;;;;;;30.52;7.70;;;;;;;13.30;100.00;99199.66;5051745;28;20112;-69
2021/12/10 07:44:50;;;;;;;50.45;19.27;;;;;;;13.42;100.00;99223.72;5051352;28;20031;-69
2021/12/10 07:47:16;;;;;;;22.77;7.63;;;;;;;13.40;100.00;99231.47;5052076;28;20079;-69
2021/12/10 07:49:43;;;;;;;25.02;8.88;;;;;;;13.36;100.00;99240.19;5052816;28;20033;-69
2021/12/10 07:52:21;;;;;;;29.38;8.68;;;;;;;13.28;100.00;99226.16;5051384;28;20036;-69
2021/12/10 07:54:48;;;;;;;22.85;8.23;;;;;;;13.29;100.00;99241.38;5051271;28;20485;-69
2021/12/10 07:57:19;;;;;;;37.92;14.07;;;;;;;13.24;100.00;99235.69;5051356;28;20488;-69
2021/12/10 07:59:45;;;;;;;35.03;11.63;;;;;;;13.20;100.00;99243.56;5053006;28;20044;-69
2021/12/10 08:02:12;;;;;;;45.80;12.57;;;;;;;13.14;100.00;99233.66;5052273;28;20095;-69
2021/12/10 08:04:38;;;;;;;33.30;12.20;;;;;;;13.06;100.00;99239.16;5050908;28;20075;-69
2021/12/10 08:07:05;;;;;;;25.60;10.02;;;;;;;13.12;100.00;99249.06;5052339;28;20382;-69
2021/12/10 08:09:30;;;;;;;69.45;28.92;;;;;;;12.93;100.00;99263.63;5052255;28;20033;-68
2021/12/10 08:11:57;;;;;;;44.72;16.58;;;;;;;12.78;100.00;99275.38;5050771;28;20158;-69
2021/12/10 08:14:23;;;;;;;45.45;23.95;;;;;;;12.60;100.00;99281.34;5052045;28;20493;-68
2021/12/10 08:16:50;;;;;;;33.03;13.15;;;;;;;12.67;100.00;99259.78;5051911;28;20036;-69
2021/12/10 08:19:16;;;;;;;33.17;13.02;;;;;;;12.66;100.00;99258.13;5051934;28;20032;-69
2021/12/10 08:21:43;;;;;;;36.00;15.80;;;;;;;12.57;100.00;99257.72;5052110;28;20033;-69
2021/12/10 08:24:09;;;;;;;47.45;18.85;;;;;;;12.47;100.00;99251.41;5051881;28;20686;-69
2021/12/10 08:26:36;;;;;;;42.63;19.55;;;;;;;12.28;100.00;99220.06;5052109;28;20049;-69
2021/12/10 08:29:06;;;;;;;43.42;19.08;;;;;;;12.50;100.00;99264.03;5051800;28;20112;-69
2021/12/10 08:31:32;;;;;;;40.03;14.70;;;;;;;12.40;100.00;99234.78;5050518;28;20087;-68
2021/12/10 08:33:58;;;;;;;46.05;15.77;;;;;;;12.46;100.00;99270.19;5051794;28;20614;-69
2021/12/10 08:36:27;;;;;;;36.38;10.25;;;;;;;12.40;100.00;99257.72;5051601;28;20038;-69
2021/12/10 08:38:53;;;;;;;65.53;24.92;;;;;;;12.34;100.00;99252.91;5051560;28;20035;-69
2021/12/10 08:41:25;;;;;;;71.82;29.52;;;;;;;12.27;100.00;99218.41;5051388;28;20061;-69
2021/12/10 08:43:57;;;;;;;62.30;25.23;;;;;;;12.27;100.00;99226.88;5051366;28;20151;-69
2021/12/10 08:46:26;;;;;;;36.53;9.23;;;;;;;12.36;100.00;99230.72;5050136;28;20040;-69
2021/12/10 08:48:53;;;;;;;89.65;38.35;;;;;;;12.31;100.00;99243.66;5050257;28;20095;-69
2021/12/10 08:51:25;;;;;;;35.15;7.32;;;;;;;12.47;100.00;99242.06;5051358;28;20082;-69
2021/12/10 08:53:52;;;;;;;27.90;7.45;;;;;;;12.49;100.00;99235.16;5050015;28;20445;-69
2021/12/10 08:56:19;;;;;;;35.08;10.57;;;;;;;12.21;100.00;99216.97;5050128;28;20174;-69
2021/12/10 08:58:45;;;;;;;42.45;13.85;;;;;;;12.39;100.00;99248.41;5051251;28;20021;-69
2021/12/10 09:01:17;;;;;;;44.13;15.43;;;;;;;12.20;100.00;99222.97;5051197;28;20028;-69
2021/12/10 09:03:48;;;;;;;27.92;9.52;;;;;;;12.50;100.00;99233.44;5051347;28;20481;-69
2021/12/10 09:06:14;;;;;;;27.90;8.90;;;;;;;12.51;100.00;99235.06;5051135;28;20025;-69
2021/12/10 09:08:41;;;;;;;33.70;10.57;;;;;;;12.50;100.00;99231.69;5051222;28;20520;-69
2021/12/10 09:11:11;;;;;;;24.55;9.75;;;;;;;12.46;100.00;99237.84;5049509;28;20087;-69
2021/12/10 09:13:38;;;;;;;26.00;9.70;;;;;;;12.43;100.00;99230.34;5049711;28;20125;-69
2021/12/10 09:16:08;;;;;;;23.73;8.40;;;;;;;12.38;100.00;99216.19;5049843;28;20039;-69
2021/12/10 09:18:38;;;;;;;28.65;11.82;;;;;;;12.39;100.00;99233.13;5050861;28;20078;-69
2021/12/10 09:21:07;;;;;;;30.33;11.82;;;;;;;12.33;100.00;99228.31;5051948;28;20413;-69
2021/12/10 09:23:33;;;;;;;24.90;7.45;;;;;;;12.18;100.00;99214.56;5051249;28;20155;-69
2021/12/10 09:26:03;;;;;;;20.85;7.13;;;;;;;12.11;100.00;99190.25;5049733;28;20082;-69
2021/12/10 09:28:29;;;;;;;16.92;4.75;;;;;;;12.15;100.00;99195.16;5050777;28;20575;-69
2021/12/10 09:30:59;;;;;;;17.52;4.35;;;;;;;12.10;100.00;99188.63;5050941;28;20057;-70
2021/12/10 09:33:26;;;;;;;11.63;3.47;;;;;;;12.17;100.00;99190.81;5049498;28;20029;-70
2021/12/10 09:35:55;;;;;;;23.10;6.75;;;;;;;12.09;100.00;99167.41;5049435;28;20033;-69
2021/12/10 09:38:24;;;;;;;14.35;4.05;;;;;;;12.18;100.00;99184.78;5050826;28;20035;-69
2021/12/10 09:40:54;;;;;;;15.38;4.32;;;;;;;12.27;100.00;99195.47;5048998;28;20064;-69
2021/12/10 09:43:22;;;;;;;15.70;3.63;;;;;;;12.25;100.00;99181.97;5050532;28;20104;-69
2021/12/10 09:45:51;;;;;;;12.63;2.80;;;;;;;12.41;100.00;99195.63;5050859;28;20485;-69
2021/12/10 09:48:20;;;;;;;14.45;3.95;;;;;;;12.26;100.00;99202.28;5049338;28;20031;-69
2021/12/10 09:51:03;;;;;;;12.65;3.72;;;;;;;12.23;100.00;99187.13;5050759;28;20489;-69
2021/12/10 09:53:36;;;;;;;23.60;10.60;;;;;;;12.31;100.00;99177.41;5050825;28;20432;-69
2021/12/10 09:56:04;;;;;;;12.13;4.47;;;;;;;12.16;100.00;99157.75;5050406;28;20017;-69
2021/12/10 09:58:30;;;;;;;4.57;2.38;;;;;;;12.41;100.00;99187.97;5050487;28;20493;-69
2021/12/10 10:01:06;;;;;;;8.88;3.35;;;;;;;12.48;100.00;99192.69;5049308;28;20032;-69
2021/12/10 10:03:37;;;;;;;7.88;2.97;;;;;;;12.63;100.00;99189.44;5050436;28;20021;-71
2021/12/10 10:06:04;;;;;;;7.15;3.28;;;;;;;12.57;100.00;99176.16;5049060;28;20029;-69
2021/12/10 10:08:32;;;;;;;3.88;1.52;;;;;;;12.94;100.00;99196.38;5050611;28;20488;-68
2021/12/10 10:11:12;;;;;;;5.00;1.52;;;;;;;13.00;100.00;99179.03;5049269;28;20079;-69
2021/12/10 10:13:40;;;;;;;4.38;1.60;;;;;;;12.99;100.00;99184.22;5050454;28;20025;-68
2021/12/10 10:16:07;;;;;;;3.95;1.60;;;;;;;12.83;100.00;99180.78;5050535;28;20033;-69
2021/12/10 10:18:36;;;;;;;3.50;1.38;;;;;;;12.84;100.00;99170.50;5050309;28;20036;-69
2021/12/10 10:21:09;;;;;;;3.65;1.05;;;;;;;12.78;100.00;99211.63;5050178;28;20404;-68
2021/12/10 10:23:38;;;;;;;3.85;1.58;;;;;;;12.78;100.00;99208.22;5051630;28;20032;-68
2021/12/10 10:26:07;;;;;;;3.72;1.30;;;;;;;12.90;100.00;99202.53;5054195;28;20603;-69
2021/12/10 10:28:35;;;;;;;3.85;1.13;;;;;;;12.87;100.00;99175.47;5052820;28;20035;-69
2021/12/10 10:31:09;;;;;;;4.47;1.30;;;;;;;12.84;100.00;99188.34;5054296;28;20028;-68
2021/12/10 10:33:38;;;;;;;4.78;1.48;;;;;;;12.80;100.00;99196.22;5054140;28;20036;-69
2021/12/10 10:36:11;;;;;;;5.47;2.05;;;;;;;12.69;100.00;99186.59;5053977;28;20035;-69
2021/12/10 10:38:37;;;;;;;3.75;1.70;;;;;;;12.65;100.00;99197.00;5054164;28;20032;-69
2021/12/10 10:41:08;;;;;;;2.72;1.60;;;;;;;12.70;100.00;99208.63;5053608;28;20406;-69
2021/12/10 10:43:35;;;;;;;6.65;2.15;;;;;;;12.60;100.00;99199.75;5052546;28;20035;-69
2021/12/10 10:46:01;;;;;;;4.05;1.77;;;;;;;12.61;100.00;99203.16;5053938;28;20571;-69
2021/12/10 10:48:28;;;;;;;3.95;2.15;;;;;;;12.55;100.00;99206.00;5052502;28;20108;-69
2021/12/10 10:51:03;;;;;;;4.35;1.25;;;;;;;12.53;100.00;99193.31;5052381;28;20029;-69
2021/12/10 10:53:33;;;;;;;6.50;1.75;;;;;;;12.52;100.00;99213.81;5053879;28;20029;-69
2021/12/10 10:56:14;;;;;;;4.88;1.10;;;;;;;12.53;100.00;99203.53;5053787;28;20048;-69
2021/12/10 10:58:44;;;;;;;4.68;1.60;;;;;;;12.50;100.00;99205.41;5053643;28;20032;-69
2021/12/10 11:01:23;;;;;;;7.38;2.13;;;;;;;12.59;100.00;99197.28;5052239;28;20029;-69
2021/12/10 11:03:58;;;;;;;5.38;1.80;;;;;;;12.65;100.00;99195.28;5052399;28;20083;-69
2021/12/10 11:06:30;;;;;;;6.70;1.73;;;;;;;12.61;100.00;99183.56;5053365;28;20029;-69
2021/12/10 11:09:21;;;;;;;5.63;1.60;;;;;;;12.45;100.00;99158.91;5053262;28;20497;-69
2021/12/10 11:12:02;;;;;;;7.32;2.30;;;;;;;12.68;100.00;99195.13;5053514;28;20409;-69
2021/12/10 11:14:41;;;;;;;8.35;4.07;;;;;;;12.53;100.00;99195.03;5052504;28;20530;-69
2021/12/10 11:17:16;;;;;;;11.05;4.43;;;;;;;12.56;100.00;99193.16;5053260;28;20115;-69
2021/12/10 11:20:03;;;;;;;13.52;7.30;;;;;;;12.55;100.00;99183.03;5053231;28;20069;-69
2021/12/10 11:22:30;;;;;;;10.10;5.70;;;;;;;12.55;100.00;99172.84;5053177;28;20480;-69
2021/12/10 11:25:14;;;;;;;9.82;4.30;;;;;;;12.53;100.00;99156.81;5053099;28;20087;-69
2021/12/10 11:27:42;;;;;;;6.78;3.47;;;;;;;12.52;100.00;99152.63;5052912;28;20096;-69
2021/12/10 11:30:12;;;;;;;7.90;1.98;;;;;;;12.48;100.00;99113.69;5052950;28;20416;-69
2021/12/10 11:32:39;;;;;;;8.73;2.60;;;;;;;12.61;100.00;99145.34;5052961;28;20029;-70
2021/12/10 11:35:26;;;;;;;8.02;2.90;;;;;;;12.59;100.00;99136.94;5052546;28;20072;-69